Time;durP1;ratioP1;P1;durP2;ratioP2;P2;SDS_P1;SDS_P2;PMS_P1;PMS_P2;Temp;Humidity;BMP_temperature;BMP_pressure;BME280_temperature;BME280_humidity;BME280_pressure;Samples;Min_cycle;Max_cycle;Signal;HPM_P1;HPM_P2
2020/12/26 00:01:19;;;;;;;1999.90;999.90;;;4.40;99.90;;;;;;5089340;28;20199;-85
2020/12/26 00:03:46;;;;;;;1999.90;999.90;;;4.40;99.90;;;;;;5089491;28;20163;-85
2020/12/26 00:06:24;;;;;;;1999.90;999.90;;;4.30;99.90;;;;;;5071707;28;20164;-85
2020/12/26 00:08:53;;;;;;;1999.90;999.90;;;4.40;99.90;;;;;;5089740;28;20164;-85
2020/12/26 00:11:20;;;;;;;1999.90;999.90;;;4.40;99.90;;;;;;5071838;28;20179;-85
2020/12/26 00:13:47;;;;;;;1999.90;999.90;;;4.40;99.90;;;;;;5090084;28;20238;-85
2020/12/26 00:16:13;;;;;;;1999.90;999.90;;;4.40;99.90;;;;;;5089104;28;20167;-85
2020/12/26 00:18:47;;;;;;;1999.90;999.90;;;4.40;99.90;;;;;;5089549;28;20187;-85
2020/12/26 00:21:16;;;;;;;1999.90;999.90;;;4.40;99.90;;;;;;5088861;28;20278;-85
2020/12/26 00:23:43;;;;;;;1999.90;999.90;;;4.40;99.90;;;;;;5071170;28;20246;-85
2020/12/26 00:26:09;;;;;;;1999.90;999.90;;;4.30;99.90;;;;;;5089128;28;20164;-85
2020/12/26 00:28:34;;;;;;;1999.90;999.90;;;4.40;99.90;;;;;;5088850;28;20219;-85
2020/12/26 00:31:03;;;;;;;1999.90;999.90;;;4.40;99.90;;;;;;5088871;28;20189;-85
2020/12/26 00:33:32;;;;;;;1999.90;999.90;;;4.40;99.90;;;;;;5089215;28;20406;-85
2020/12/26 00:35:58;;;;;;;1999.90;999.90;;;4.30;99.90;;;;;;5089044;28;20170;-85
2020/12/26 00:38:24;;;;;;;1999.90;999.90;;;4.30;99.90;;;;;;5089374;28;20196;-85
2020/12/26 00:40:49;;;;;;;1999.90;999.90;;;4.40;99.90;;;;;;5088685;28;20394;-85
2020/12/26 00:43:15;;;;;;;1999.90;999.90;;;4.30;99.90;;;;;;5090175;28;20424;-85
2020/12/26 00:45:41;;;;;;;1999.90;999.90;;;4.40;99.90;;;;;;5071989;28;20163;-85
2020/12/26 00:48:07;;;;;;;1999.90;999.90;;;4.40;99.90;;;;;;5088924;28;20190;-85
2020/12/26 00:50:33;;;;;;;1999.90;999.90;;;4.40;99.90;;;;;;5088861;28;20238;-85
2020/12/26 00:53:01;;;;;;;1999.90;999.90;;;4.40;99.90;;;;;;5088691;28;20214;-85
2020/12/26 00:55:26;;;;;;;1999.90;999.90;;;4.30;99.90;;;;;;5070909;28;20172;-85
2020/12/26 00:57:52;;;;;;;1999.90;999.90;;;4.30;99.90;;;;;;5070663;28;20217;-85
2020/12/26 01:00:18;;;;;;;1999.90;999.90;;;4.40;99.90;;;;;;5071054;28;20631;-85
2020/12/26 01:02:44;;;;;;;1999.90;999.90;;;4.40;99.90;;;;;;5088714;28;20164;-85
2020/12/26 01:05:12;;;;;;;1999.90;999.90;;;4.30;99.90;;;;;;5089450;28;20414;-85
2020/12/26 01:07:41;;;;;;;1999.90;999.90;;;4.30;99.90;;;;;;5071889;28;20168;-85
2020/12/26 01:10:07;;;;;;;1999.90;999.90;;;4.30;99.90;;;;;;5089716;28;20160;-85
2020/12/26 01:12:33;;;;;;;1999.90;999.90;;;4.30;99.90;;;;;;5071468;28;20174;-85
2020/12/26 01:14:59;;;;;;;1999.90;999.90;;;4.20;99.90;;;;;;5071663;28;20172;-85
2020/12/26 01:17:25;;;;;;;1999.90;999.90;;;4.20;99.90;;;;;;5089070;28;20441;-85
2020/12/26 01:19:50;;;;;;;1999.90;999.90;;;4.30;99.90;;;;;;5071448;28;20758;-85
2020/12/26 01:22:16;;;;;;;1999.90;999.90;;;4.30;99.90;;;;;;5071359;28;20437;-85
2020/12/26 01:24:42;;;;;;;1999.90;999.90;;;4.40;99.90;;;;;;5071513;28;20239;-85
2020/12/26 01:27:08;;;;;;;1999.90;999.90;;;4.40;99.90;;;;;;5071472;28;20176;-85
2020/12/26 01:29:35;;;;;;;1999.90;999.90;;;4.30;99.90;;;;;;5089116;28;20420;-85
2020/12/26 01:32:04;;;;;;;1999.90;999.90;;;4.40;99.90;;;;;;5071136;28;20175;-85
2020/12/26 01:34:30;;;;;;;1999.90;999.90;;;4.40;99.90;;;;;;5071991;28;20195;-85
2020/12/26 01:36:56;;;;;;;1999.90;999.90;;;4.40;99.90;;;;;;5092350;28;20188;-85
2020/12/26 01:39:23;;;;;;;1999.90;999.90;;;4.40;99.90;;;;;;5075330;28;20179;-84
2020/12/26 01:41:52;;;;;;;1999.90;999.90;;;4.40;99.90;;;;;;5092671;28;20406;-85
2020/12/26 01:44:19;;;;;;;1999.90;999.90;;;4.30;99.90;;;;;;5092119;28;20207;-85
2020/12/26 01:46:47;;;;;;;1999.90;999.90;;;4.30;99.90;;;;;;5074523;28;20243;-85
2020/12/26 01:49:14;;;;;;;1999.90;999.90;;;4.40;99.90;;;;;;5092764;28;20227;-84
2020/12/26 01:51:41;;;;;;;1999.90;999.90;;;4.40;99.90;;;;;;5073122;28;20180;-84
2020/12/26 01:54:07;;;;;;;1999.90;999.90;;;4.40;99.90;;;;;;5092857;28;20152;-85
2020/12/26 01:56:33;;;;;;;1999.90;999.90;;;4.40;99.90;;;;;;5092336;28;20156;-84
2020/12/26 01:58:59;;;;;;;1999.90;999.90;;;4.40;99.90;;;;;;5091943;28;20164;-85
2020/12/26 02:01:33;;;;;;;1999.90;999.90;;;4.40;99.90;;;;;;5074268;28;20534;-85
2020/12/26 02:04:00;;;;;;;1999.90;999.90;;;4.30;99.90;;;;;;5092249;28;20240;-85
2020/12/26 02:06:29;;;;;;;1999.90;999.90;;;4.30;99.90;;;;;;5092303;28;20160;-85
2020/12/26 02:08:58;;;;;;;1999.90;999.90;;;4.30;99.90;;;;;;5074155;28;20168;-85
2020/12/26 02:11:25;;;;;;;1999.90;999.90;;;4.30;99.90;;;;;;5074214;28;20164;-85
2020/12/26 02:13:51;;;;;;;1999.90;999.90;;;4.30;99.90;;;;;;5073895;28;20160;-85
2020/12/26 02:16:17;;;;;;;1999.90;999.90;;;4.20;99.90;;;;;;5074091;28;20178;-85
2020/12/26 02:18:43;;;;;;;1999.90;999.90;;;4.20;99.90;;;;;;5091603;28;20480;-85
2020/12/26 02:21:09;;;;;;;1999.90;999.90;;;4.20;99.90;;;;;;5092206;28;20251;-85
2020/12/26 02:23:46;;;;;;;1999.90;999.90;;;4.20;99.90;;;;;;5073493;28;20417;-85
2020/12/26 02:26:13;;;;;;;1999.90;999.90;;;4.20;99.90;;;;;;5073222;28;20174;-85
2020/12/26 02:28:39;;;;;;;1999.90;999.90;;;4.20;99.90;;;;;;5072081;28;20172;-85
2020/12/26 02:31:06;;;;;;;1999.90;999.90;;;4.20;99.90;;;;;;5072346;28;20174;-85
2020/12/26 02:33:34;;;;;;;1999.90;999.90;;;4.10;99.90;;;;;;5071709;28;20168;-85
2020/12/26 02:36:04;;;;;;;1999.90;999.90;;;4.20;99.90;;;;;;5090083;28;20160;-84
2020/12/26 02:38:29;;;;;;;1999.90;999.90;;;4.20;99.90;;;;;;5090143;28;20187;-85
2020/12/26 02:40:55;;;;;;;1999.90;999.90;;;4.20;99.90;;;;;;5090628;28;20194;-84
2020/12/26 02:43:26;;;;;;;1999.90;999.90;;;4.20;99.90;;;;;;5089972;28;20411;-85
2020/12/26 02:45:55;;;;;;;1999.90;999.90;;;4.10;99.90;;;;;;5088908;28;20164;-85
2020/12/26 02:48:22;;;;;;;1999.90;999.90;;;4.20;99.90;;;;;;5090273;28;20171;-84
2020/12/26 02:50:49;;;;;;;1999.90;999.90;;;4.10;99.90;;;;;;5089794;28;20178;-85
2020/12/26 02:53:14;;;;;;;1999.90;999.90;;;4.10;99.90;;;;;;5072278;28;20167;-85
2020/12/26 02:55:40;;;;;;;1999.90;999.90;;;4.00;99.90;;;;;;5090634;28;20197;-85
2020/12/26 02:58:06;;;;;;;1999.90;999.90;;;4.00;99.90;;;;;;5089889;28;20452;-85
2020/12/26 03:00:32;;;;;;;1999.90;999.90;;;4.00;99.90;;;;;;5068826;28;20197;-84
2020/12/26 03:02:58;;;;;;;1999.90;999.90;;;3.90;99.90;;;;;;5089038;28;20164;-85
2020/12/26 03:05:23;;;;;;;1999.90;999.90;;;4.00;99.90;;;;;;5071828;28;20182;-85
2020/12/26 03:07:49;;;;;;;1999.90;999.90;;;4.00;99.90;;;;;;5090007;28;20168;-85
2020/12/26 03:10:15;;;;;;;1999.90;999.90;;;4.00;99.90;;;;;;5086153;28;20246;-84
2020/12/26 03:12:41;;;;;;;1999.90;999.90;;;4.10;99.90;;;;;;5086522;28;20163;-85
2020/12/26 03:15:07;;;;;;;1999.90;999.90;;;4.10;99.90;;;;;;5086260;28;20443;-85
2020/12/26 03:17:33;;;;;;;1999.90;999.90;;;4.10;99.90;;;;;;5090411;28;20450;-85
2020/12/26 03:19:59;;;;;;;1999.90;999.90;;;4.20;99.90;;;;;;5090388;28;20160;-85
2020/12/26 03:22:26;;;;;;;1999.90;999.90;;;4.20;99.90;;;;;;5090178;28;20390;-85
2020/12/26 03:24:53;;;;;;;1999.90;999.90;;;4.30;99.90;;;;;;5090146;28;20171;-85
2020/12/26 03:27:18;;;;;;;1999.90;999.90;;;4.30;99.90;;;;;;5089115;28;20167;-85
2020/12/26 03:29:44;;;;;;;1999.90;999.90;;;4.30;99.90;;;;;;5090181;28;20178;-84
2020/12/26 03:32:10;;;;;;;1999.90;999.90;;;4.30;99.90;;;;;;5072497;28;20203;-85
2020/12/26 03:34:36;;;;;;;1999.90;999.90;;;4.30;99.90;;;;;;5089602;28;20190;-85
2020/12/26 03:37:04;;;;;;;1999.90;999.90;;;4.30;99.90;;;;;;5089591;28;20446;-85
2020/12/26 03:39:35;;;;;;;1999.90;999.90;;;4.20;99.90;;;;;;5089696;28;20166;-85
2020/12/26 03:42:10;;;;;;;1999.90;999.90;;;4.30;99.90;;;;;;5071995;28;20180;-85
2020/12/26 03:44:37;;;;;;;1999.90;999.90;;;4.30;99.90;;;;;;5090210;28;20151;-85
2020/12/26 03:47:08;;;;;;;1999.90;999.90;;;4.30;99.90;;;;;;5089765;28;20187;-85
2020/12/26 03:49:34;;;;;;;1999.90;999.90;;;4.30;99.90;;;;;;5177474;22;20222;-83
2020/12/26 03:52:00;;;;;;;1999.90;999.90;;;4.30;99.90;;;;;;5058221;28;20646;-82
2020/12/26 03:54:26;;;;;;;1999.90;999.90;;;4.30;99.90;;;;;;5076447;28;20386;-82
2020/12/26 03:56:52;;;;;;;1999.90;999.90;;;4.30;99.90;;;;;;5075614;28;20194;-83
2020/12/26 03:59:20;;;;;;;1999.90;999.90;;;4.30;99.90;;;;;;5075776;28;20221;-83
2020/12/26 04:01:46;;;;;;;1999.90;999.90;;;4.30;99.90;;;;;;5076475;28;20187;-83
2020/12/26 04:04:15;;;;;;;1999.90;999.90;;;4.30;99.90;;;;;;5057732;28;20657;-82
2020/12/26 04:06:42;;;;;;;1999.90;999.90;;;4.30;99.90;;;;;;5058235;28;20168;-83
2020/12/26 04:09:08;;;;;;;1999.90;999.90;;;4.20;99.90;;;;;;5058613;28;20262;-82
2020/12/26 04:11:34;;;;;;;1999.90;999.90;;;4.30;99.90;;;;;;5076011;28;20201;-83
2020/12/26 04:13:59;;;;;;;1999.90;999.90;;;4.20;99.90;;;;;;5058119;28;20410;-83
2020/12/26 04:16:25;;;;;;;1999.90;999.90;;;4.30;99.90;;;;;;5075755;28;20410;-82
2020/12/26 04:18:51;;;;;;;1999.90;999.90;;;4.30;99.90;;;;;;5075951;28;20188;-83
2020/12/26 04:21:21;;;;;;;1999.90;999.90;;;4.20;99.90;;;;;;5075263;28;20206;-82
2020/12/26 04:23:47;;;;;;;1999.90;999.90;;;4.20;99.90;;;;;;5075849;28;20156;-83
2020/12/26 04:26:13;;;;;;;1999.90;999.90;;;4.30;99.90;;;;;;5075059;28;20164;-82
2020/12/26 04:28:39;;;;;;;1999.90;999.90;;;4.30;99.90;;;;;;5075366;28;20569;-83
2020/12/26 04:31:04;;;;;;;1999.90;999.90;;;4.30;99.90;;;;;;5075088;28;20432;-83
2020/12/26 04:33:30;;;;;;;1999.90;999.90;;;4.30;99.90;;;;;;5075535;28;20198;-83
2020/12/26 04:35:56;;;;;;;1999.90;999.90;;;4.20;99.90;;;;;;5057294;28;20168;-83
2020/12/26 04:38:22;;;;;;;1999.90;999.90;;;4.30;99.90;;;;;;5056764;28;20195;-83
2020/12/26 04:40:48;;;;;;;1999.90;999.90;;;4.30;99.90;;;;;;5074858;28;20164;-82
2020/12/26 04:43:14;;;;;;;1999.90;999.90;;;4.30;99.90;;;;;;5057044;28;20254;-82
2020/12/26 04:45:40;;;;;;;1999.90;999.90;;;4.30;99.90;;;;;;5075161;28;20170;-82
2020/12/26 04:48:12;;;;;;;1999.90;999.90;;;4.40;99.90;;;;;;5075207;28;20168;-82
2020/12/26 04:50:48;;;;;;;1999.90;999.90;;;4.40;99.90;;;;;;5056956;28;20191;-83
2020/12/26 04:53:19;;;;;;;1999.90;999.90;;;4.30;99.90;;;;;;5057557;28;20168;-83
2020/12/26 04:55:47;;;;;;;1999.90;999.90;;;4.30;99.90;;;;;;5057100;28;20164;-83
2020/12/26 04:58:14;;;;;;;1999.90;999.90;;;4.30;99.90;;;;;;5076821;28;20297;-83
2020/12/26 05:00:40;;;;;;;1999.90;999.90;;;4.40;99.90;;;;;;5059879;28;20160;-82
2020/12/26 05:03:08;;;;;;;1999.90;999.90;;;4.40;99.90;;;;;;5058491;28;20156;-83
2020/12/26 05:05:34;;;;;;;1999.90;999.90;;;4.40;99.90;;;;;;5058487;28;20247;-83
2020/12/26 05:08:08;;;;;;;1999.90;999.90;;;4.30;99.90;;;;;;5076806;28;20195;-83
2020/12/26 05:10:34;;;;;;;1999.90;999.90;;;4.30;99.90;;;;;;5060903;28;20661;-83
2020/12/26 05:13:01;;;;;;;1999.90;999.90;;;4.40;99.90;;;;;;5080342;28;20175;-83
2020/12/26 05:15:27;;;;;;;1999.90;999.90;;;4.40;99.90;;;;;;5061911;28;20191;-83
2020/12/26 05:17:53;;;;;;;1999.90;999.90;;;4.40;99.90;;;;;;5061715;28;20191;-83
2020/12/26 05:20:26;;;;;;;1999.90;999.90;;;4.40;99.90;;;;;;5080240;28;20661;-83
2020/12/26 05:23:17;;;;;;;1999.90;999.90;;;4.40;99.90;;;;;;5061227;28;20168;-83
2020/12/26 05:25:46;;;;;;;1999.90;999.90;;;4.40;99.90;;;;;;5079813;28;20167;-83
2020/12/26 05:28:16;;;;;;;1999.90;999.90;;;4.40;99.90;;;;;;5079188;28;20166;-83
2020/12/26 05:30:43;;;;;;;1999.90;999.90;;;4.40;99.90;;;;;;5061482;28;20534;-83
2020/12/26 05:33:10;;;;;;;1999.90;999.90;;;4.40;99.90;;;;;;5079079;28;20171;-83
2020/12/26 05:35:48;;;;;;;1999.90;999.90;;;4.30;99.90;;;;;;5078831;28;20182;-83
2020/12/26 05:38:25;;;;;;;1999.90;999.90;;;4.40;99.90;;;;;;5079312;28;20179;-83
2020/12/26 05:40:53;;;;;;;1999.90;999.90;;;4.50;99.90;;;;;;5061090;28;20205;-83
2020/12/26 05:43:21;;;;;;;1999.90;999.90;;;4.50;99.90;;;;;;5062013;28;20653;-83
2020/12/26 05:45:48;;;;;;;1999.90;999.90;;;4.50;99.90;;;;;;5061484;28;20650;-83
2020/12/26 05:48:16;;;;;;;1999.90;999.90;;;4.50;99.90;;;;;;5061903;28;20175;-83
2020/12/26 05:50:42;;;;;;;1999.90;999.90;;;4.50;99.90;;;;;;5061254;28;20184;-83
2020/12/26 05:53:11;;;;;;;1999.90;999.90;;;4.40;99.90;;;;;;5079482;28;20196;-83
2020/12/26 05:55:39;;;;;;;1999.90;999.90;;;4.40;99.90;;;;;;5061946;28;20168;-83
2020/12/26 05:58:05;;;;;;;1999.90;999.90;;;4.40;99.90;;;;;;5079935;28;20681;-83
2020/12/26 06:00:32;;;;;;;1999.90;999.90;;;4.40;99.90;;;;;;5079639;28;20168;-83
2020/12/26 06:02:58;;;;;;;1999.90;999.90;;;4.30;99.90;;;;;;5061294;28;20669;-83
2020/12/26 06:05:26;;;;;;;1999.90;999.90;;;4.30;99.90;;;;;;5078759;28;20160;-83
2020/12/26 06:07:51;;;;;;;1999.90;999.90;;;4.40;99.90;;;;;;5078419;28;20456;-83
2020/12/26 06:10:20;;;;;;;1999.90;999.90;;;4.40;99.90;;;;;;5079211;28;20168;-83
2020/12/26 06:12:47;;;;;;;1999.90;999.90;;;4.30;99.90;;;;;;5061165;28;20168;-83
2020/12/26 06:15:20;;;;;;;1999.90;999.90;;;4.30;99.90;;;;;;5078412;28;20178;-83
2020/12/26 06:17:50;;;;;;;1999.90;999.90;;;4.20;99.90;;;;;;5079645;28;20172;-83
2020/12/26 06:20:18;;;;;;;1999.90;999.90;;;4.20;99.90;;;;;;5060714;28;20168;-83
2020/12/26 06:22:48;;;;;;;1999.90;999.90;;;4.20;99.90;;;;;;5078409;28;20161;-83
2020/12/26 06:25:16;;;;;;;1999.90;999.90;;;4.20;99.90;;;;;;5061470;28;20172;-83
2020/12/26 06:27:51;;;;;;;1999.90;999.90;;;4.10;99.90;;;;;;5061630;28;20214;-83
2020/12/26 06:30:18;;;;;;;1999.90;999.90;;;4.10;99.90;;;;;;5078450;28;20162;-83
2020/12/26 06:32:46;;;;;;;1999.90;999.90;;;4.10;99.90;;;;;;5078953;28;20175;-82
2020/12/26 06:35:13;;;;;;;1999.90;999.90;;;4.10;99.90;;;;;;5061191;28;20515;-83
2020/12/26 06:37:39;;;;;;;1999.90;999.90;;;4.10;99.90;;;;;;5079366;28;20191;-83
2020/12/26 06:40:23;;;;;;;1999.90;999.90;;;4.10;99.90;;;;;;5079301;28;20518;-83
2020/12/26 06:42:49;;;;;;;1999.90;999.90;;;4.00;99.90;;;;;;5078888;28;20171;-83
2020/12/26 06:45:31;;;;;;;1999.90;999.90;;;4.00;99.90;;;;;;5060887;28;20247;-83
2020/12/26 06:47:57;;;;;;;1999.90;999.90;;;4.00;99.90;;;;;;5078538;28;20746;-83
2020/12/26 06:50:27;;;;;;;1999.90;999.90;;;4.00;99.90;;;;;;5060715;28;20191;-83
2020/12/26 06:52:53;;;;;;;1999.90;999.90;;;4.00;99.90;;;;;;5060117;28;20722;-82
2020/12/26 06:55:39;;;;;;;1999.90;999.90;;;4.10;99.90;;;;;;5077943;28;20179;-83
2020/12/26 06:58:06;;;;;;;1999.90;999.90;;;4.10;99.90;;;;;;5078621;28;20729;-83
2020/12/26 07:00:33;;;;;;;1999.90;999.90;;;4.00;99.90;;;;;;5060081;28;20221;-83
2020/12/26 07:03:18;;;;;;;1999.90;999.90;;;4.10;99.90;;;;;;5078236;28;20687;-83
2020/12/26 07:05:45;;;;;;;1999.90;999.90;;;4.10;99.90;;;;;;5078126;28;20164;-83
2020/12/26 07:08:26;;;;;;;1999.90;999.90;;;4.00;99.90;;;;;;5060021;28;20168;-83
2020/12/26 07:10:53;;;;;;;1999.90;999.90;;;4.00;99.90;;;;;;5060190;28;20164;-83
2020/12/26 07:13:41;;;;;;;1999.90;999.90;;;4.00;99.90;;;;;;5077783;28;20191;-83
2020/12/26 07:16:26;;;;;;;1999.90;999.90;;;4.00;99.90;;;;;;5078045;28;20172;-83
2020/12/26 07:18:55;;;;;;;1999.90;999.90;;;4.00;99.90;;;;;;5077277;28;20658;-83
2020/12/26 07:21:22;;;;;;;1999.90;999.90;;;4.00;99.90;;;;;;5077654;28;20164;-83
2020/12/26 07:23:50;;;;;;;1999.90;999.90;;;4.20;99.90;;;;;;5059862;28;20201;-83
2020/12/26 07:26:18;;;;;;;1999.90;999.90;;;4.20;99.90;;;;;;5077815;28;20170;-83
2020/12/26 07:28:44;;;;;;;1999.90;999.90;;;4.10;99.90;;;;;;5059979;28;20167;-83
2020/12/26 07:31:21;;;;;;;1999.90;999.90;;;4.20;99.90;;;;;;5077653;28;20164;-83
2020/12/26 07:33:47;;;;;;;1999.90;999.90;;;4.20;99.90;;;;;;5077356;28;20249;-83
2020/12/26 07:36:20;;;;;;;1999.90;999.90;;;4.20;99.90;;;;;;5077477;28;20164;-83
2020/12/26 07:39:01;;;;;;;1999.90;999.90;;;4.10;99.90;;;;;;5077761;28;20191;-83
2020/12/26 07:41:27;;;;;;;1999.90;999.90;;;4.20;99.90;;;;;;5058542;28;20170;-83
2020/12/26 07:43:56;;;;;;;1999.90;999.90;;;4.20;99.90;;;;;;5077279;28;20242;-83
2020/12/26 07:46:25;;;;;;;1999.90;999.90;;;4.20;99.90;;;;;;5076819;28;20448;-83
2020/12/26 07:48:54;;;;;;;1999.90;999.90;;;4.20;99.90;;;;;;5058922;28;20568;-83
2020/12/26 07:51:20;;;;;;;1999.90;999.90;;;4.20;99.90;;;;;;5077272;28;20175;-83
2020/12/26 07:53:48;;;;;;;1999.90;999.90;;;4.10;99.90;;;;;;5076072;28;20649;-83
2020/12/26 07:56:33;;;;;;;1999.90;999.90;;;4.10;99.90;;;;;;5076189;28;20503;-85
2020/12/26 07:58:58;;;;;;;1999.90;999.90;;;4.00;99.90;;;;;;5076451;28;20553;-83
2020/12/26 08:01:27;;;;;;;1999.90;999.90;;;4.00;99.90;;;;;;5076079;28;20247;-83
2020/12/26 08:04:05;;;;;;;1999.90;999.90;;;4.00;99.90;;;;;;5076597;28;20530;-83
2020/12/26 08:06:31;;;;;;;1999.90;999.90;;;4.00;99.90;;;;;;5058190;28;20254;-83
2020/12/26 08:08:58;;;;;;;1999.90;999.90;;;3.90;99.90;;;;;;5076711;28;20511;-83
2020/12/26 08:11:24;;;;;;;1999.90;999.90;;;3.90;99.90;;;;;;5076014;28;20172;-83
2020/12/26 08:14:03;;;;;;;1999.90;999.90;;;3.80;99.90;;;;;;5058574;28;20175;-83
2020/12/26 08:16:30;;;;;;;1999.90;999.90;;;3.90;99.90;;;;;;5076281;28;20609;-83
2020/12/26 08:18:56;;;;;;;1999.90;999.90;;;3.70;99.90;;;;;;5059067;28;20227;-83
2020/12/26 08:21:22;;;;;;;1999.90;999.90;;;3.70;99.90;;;;;;5059632;28;20217;-83
2020/12/26 08:24:04;;;;;;;1999.90;999.90;;;3.80;99.90;;;;;;5058200;28;20408;-83
2020/12/26 08:26:34;;;;;;;1999.90;999.90;;;3.80;99.90;;;;;;5058374;28;20156;-83
2020/12/26 08:29:03;;;;;;;1999.90;999.90;;;3.80;99.90;;;;;;5076551;28;20172;-83
2020/12/26 08:31:30;;;;;;;1999.90;999.90;;;3.90;99.90;;;;;;5076107;28;20159;-83
2020/12/26 08:34:09;;;;;;;1999.90;999.90;;;3.90;99.90;;;;;;5059160;28;20177;-83
2020/12/26 08:36:50;;;;;;;1999.90;999.90;;;3.80;99.90;;;;;;5058035;28;20189;-83
2020/12/26 08:39:18;;;;;;;1999.90;999.90;;;3.80;99.90;;;;;;5076275;28;20151;-83
2020/12/26 08:41:45;;;;;;;1999.90;999.90;;;3.80;99.90;;;;;;5076572;28;20195;-83
2020/12/26 08:44:13;;;;;;;1999.90;999.90;;;3.90;99.90;;;;;;5075464;28;20167;-83
2020/12/26 08:46:46;;;;;;;1999.90;999.90;;;4.00;99.90;;;;;;5075543;28;20183;-83
2020/12/26 08:49:15;;;;;;;1999.90;999.90;;;3.90;99.90;;;;;;5057837;28;20175;-83
2020/12/26 08:51:45;;;;;;;1999.90;999.90;;;3.90;99.90;;;;;;5057324;28;20254;-83
2020/12/26 08:54:22;;;;;;;1999.90;999.90;;;3.90;99.90;;;;;;5056933;28;20172;-84
2020/12/26 08:57:17;;;;;;;1999.90;999.90;;;3.90;99.90;;;;;;5056600;28;20183;-84
2020/12/26 08:59:48;;;;;;;1999.90;999.90;;;4.00;99.90;;;;;;5057202;28;20167;-84
2020/12/26 09:02:16;;;;;;;1999.90;999.90;;;4.00;99.90;;;;;;5075903;28;20205;-84
2020/12/26 09:04:44;;;;;;;1999.90;999.90;;;4.00;99.90;;;;;;5074839;28;20152;-83
2020/12/26 09:07:24;;;;;;;1999.90;999.90;;;4.00;99.90;;;;;;5074144;28;20504;-83
2020/12/26 09:09:52;;;;;;;1999.90;999.90;;;4.10;99.90;;;;;;5074687;28;20183;-84
2020/12/26 09:12:18;;;;;;;1999.90;999.90;;;4.20;99.90;;;;;;5055787;28;20168;-83
2020/12/26 09:15:00;;;;;;;1999.90;999.90;;;4.20;99.90;;;;;;5056217;28;20529;-83
2020/12/26 09:17:29;;;;;;;1999.90;999.90;;;4.20;99.90;;;;;;5056241;28;20176;-83
2020/12/26 09:20:07;;;;;;;1999.90;999.90;;;4.20;99.90;;;;;;5056458;28;20217;-83
2020/12/26 09:22:33;;;;;;;1999.90;999.90;;;4.20;99.90;;;;;;5056591;28;20638;-83
2020/12/26 09:24:59;;;;;;;1999.90;999.90;;;4.30;99.90;;;;;;5074148;28;20210;-83
2020/12/26 09:27:29;;;;;;;1999.90;999.90;;;4.20;99.90;;;;;;5056249;28;20459;-82
2020/12/26 09:30:09;;;;;;;1999.90;999.90;;;4.30;99.90;;;;;;5056368;28;20455;-83
2020/12/26 09:32:34;;;;;;;1999.90;999.90;;;4.40;99.90;;;;;;5056730;28;20248;-84
2020/12/26 09:35:18;;;;;;;1999.90;999.90;;;4.40;99.90;;;;;;5056143;28;20251;-83
2020/12/26 09:37:54;;;;;;;1999.90;999.90;;;4.50;99.90;;;;;;5073948;28;20178;-83
2020/12/26 09:40:35;;;;;;;1999.90;999.90;;;4.50;99.90;;;;;;5056500;28;20210;-83
2020/12/26 09:43:04;;;;;;;1999.90;999.90;;;4.50;99.90;;;;;;5055891;28;20174;-83
2020/12/26 09:45:33;;;;;;;1999.90;999.90;;;4.50;99.90;;;;;;5056045;28;20164;-83
2020/12/26 09:47:59;;;;;;;1999.90;999.90;;;4.60;99.90;;;;;;5073648;28;20210;-83
2020/12/26 09:50:25;;;;;;;1999.90;999.90;;;4.70;99.90;;;;;;5145645;22;20220;-84
2020/12/26 09:52:51;;;;;;;1999.90;999.90;;;4.80;99.90;;;;;;5070741;28;20164;-84
2020/12/26 09:55:17;;;;;;;1999.90;999.90;;;4.90;99.90;;;;;;5089111;28;20418;-84
2020/12/26 09:57:43;;;;;;;1999.90;999.90;;;4.90;99.90;;;;;;5073792;28;20803;-84
2020/12/26 10:00:09;;;;;;;1999.90;999.90;;;5.00;99.90;;;;;;5092305;28;20405;-84
2020/12/26 10:02:35;;;;;;;1999.90;999.90;;;5.00;99.90;;;;;;5074224;28;20417;-84
2020/12/26 10:05:05;;;;;;;1999.90;999.90;;;5.00;99.90;;;;;;5091182;28;20186;-84
2020/12/26 10:07:34;;;;;;;1999.90;999.90;;;5.00;99.90;;;;;;5091390;28;20219;-84
2020/12/26 10:10:05;;;;;;;1999.90;999.90;;;5.10;99.90;;;;;;5072253;28;20164;-84
2020/12/26 10:12:31;;;;;;;1999.90;999.90;;;5.20;99.90;;;;;;5089349;28;20168;-84
2020/12/26 10:14:57;;;;;;;1999.90;999.90;;;5.30;99.90;;;;;;5091428;28;20168;-84
2020/12/26 10:17:22;;;;;;;1999.90;999.90;;;5.40;99.90;;;;;;5090168;28;20195;-84
2020/12/26 10:19:48;;;;;;;1999.90;999.90;;;5.50;99.90;;;;;;5069354;28;20171;-84
2020/12/26 10:22:13;;;;;;;1999.90;999.90;;;5.50;99.90;;;;;;5072825;28;20164;-84
2020/12/26 10:24:39;;;;;;;1999.90;999.90;;;5.50;99.90;;;;;;5087559;28;20662;-84
2020/12/26 10:27:05;;;;;;;1999.90;999.90;;;5.60;99.90;;;;;;5091863;28;20163;-84
2020/12/26 10:29:30;;;;;;;1999.90;999.90;;;5.60;99.90;;;;;;5070149;28;20163;-84
2020/12/26 10:31:56;;;;;;;1999.90;999.90;;;5.60;99.90;;;;;;5087656;28;20160;-84
2020/12/26 10:34:22;;;;;;;1999.90;999.90;;;5.60;99.90;;;;;;5091169;28;20167;-84
2020/12/26 10:36:48;;;;;;;1999.90;999.90;;;5.60;99.90;;;;;;5071781;28;20231;-84
2020/12/26 10:39:16;;;;;;;1999.90;999.90;;;5.70;99.90;;;;;;5072494;28;20188;-84
2020/12/26 10:41:45;;;;;;;1999.90;999.90;;;5.70;99.90;;;;;;5071024;28;20429;-84
2020/12/26 10:44:11;;;;;;;1999.90;999.90;;;5.70;99.90;;;;;;5073702;28;20198;-84
2020/12/26 10:46:41;;;;;;;1999.90;999.90;;;5.60;99.90;;;;;;5073295;28;20167;-84
2020/12/26 10:49:15;;;;;;;1999.90;999.90;;;5.60;99.90;;;;;;5087320;28;20296;-84
2020/12/26 10:51:40;;;;;;;1999.90;999.90;;;5.60;99.90;;;;;;5071849;28;20661;-84
2020/12/26 10:54:06;;;;;;;1999.90;999.90;;;5.70;99.90;;;;;;5072519;28;20190;-84
2020/12/26 10:56:44;;;;;;;1999.90;999.90;;;5.80;99.90;;;;;;5072057;28;20168;-84
2020/12/26 10:59:09;;;;;;;1999.90;999.90;;;5.80;99.90;;;;;;5090509;28;20246;-84
2020/12/26 11:01:35;;;;;;;1999.90;999.90;;;5.90;99.90;;;;;;5072532;28;20160;-84
2020/12/26 11:04:07;;;;;;;1999.90;999.90;;;5.90;99.90;;;;;;5091502;28;20625;-84
2020/12/26 11:06:33;;;;;;;1999.90;999.90;;;5.80;99.90;;;;;;5071867;28;20607;-84
2020/12/26 11:08:59;;;;;;;1999.90;999.90;;;5.60;99.90;;;;;;5067069;28;20174;-84
2020/12/26 11:11:27;;;;;;;1999.90;999.90;;;5.60;99.90;;;;;;5087232;28;20403;-84
2020/12/26 11:13:56;;;;;;;1999.90;999.90;;;5.60;99.90;;;;;;5089433;28;20410;-84
2020/12/26 11:16:30;;;;;;;1999.90;999.90;;;5.60;99.90;;;;;;5090331;28;20174;-84
2020/12/26 11:18:56;;;;;;;1999.90;999.90;;;5.70;99.90;;;;;;5073188;28;20210;-84
2020/12/26 11:21:21;;;;;;;1999.90;999.90;;;5.70;99.90;;;;;;5072631;28;20164;-84
2020/12/26 11:23:47;;;;;;;1999.90;999.90;;;5.70;99.90;;;;;;5090969;28;20185;-84
2020/12/26 11:26:13;;;;;;;1999.90;999.90;;;5.70;99.90;;;;;;5086000;28;20156;-84
2020/12/26 11:28:59;;;;;;;1999.90;999.90;;;5.60;99.90;;;;;;5070807;28;20249;-84
2020/12/26 11:31:45;;;;;;;1999.90;999.90;;;5.60;99.90;;;;;;5081382;28;20193;-84
2020/12/26 11:34:58;;;;;;;1999.90;999.90;;;5.70;99.90;;;;;;5089795;28;20186;-84
2020/12/26 11:37:26;;;;;;;1999.90;999.90;;;5.70;99.90;;;;;;5089838;28;20176;-84
2020/12/26 11:40:36;;;;;;;1999.90;999.90;;;5.90;99.90;;;;;;5089368;28;20163;-84
2020/12/26 11:43:04;;;;;;;1999.90;999.90;;;5.90;99.90;;;;;;5076391;28;20176;-84
2020/12/26 11:45:30;;;;;;;1999.90;999.90;;;5.90;99.90;;;;;;5090745;28;20530;-84
2020/12/26 11:47:56;;;;;;;1999.90;999.90;;;6.00;99.90;;;;;;5090197;28;20170;-84
2020/12/26 11:50:25;;;;;;;1999.90;999.90;;;5.90;99.90;;;;;;5089552;28;20436;-84
2020/12/26 11:52:50;;;;;;;1999.90;999.90;;;6.00;99.90;;;;;;5072000;28;20180;-84
2020/12/26 11:55:19;;;;;;;1999.90;999.90;;;6.10;99.90;;;;;;5089052;28;20164;-84
2020/12/26 11:57:45;;;;;;;1999.90;999.90;;;6.10;99.90;;;;;;5088908;28;20247;-84
2020/12/26 12:00:11;;;;;;;1999.90;999.90;;;6.00;99.90;;;;;;5069897;28;20221;-84
2020/12/26 12:02:37;;;;;;;1999.90;999.90;;;6.00;99.90;;;;;;5089348;28;20160;-84
2020/12/26 12:05:02;;;;;;;1999.90;999.90;;;5.80;99.90;;;;;;5089490;28;20424;-84
2020/12/26 12:07:30;;;;;;;1999.90;999.90;;;5.80;99.90;;;;;;5088960;28;20193;-84
2020/12/26 12:09:56;;;;;;;1999.90;999.90;;;5.80;99.90;;;;;;5089921;28;20171;-85
2020/12/26 12:12:25;;;;;;;1999.90;999.90;;;6.00;99.90;;;;;;5089007;28;20167;-84
2020/12/26 12:14:51;;;;;;;1999.90;999.90;;;6.00;99.90;;;;;;5089453;28;20190;-84
2020/12/26 12:17:17;;;;;;;1999.90;999.90;;;6.10;99.90;;;;;;5085897;28;20195;-84